Startpagina
METAR-TAF:

METAR-TAF

Vliegvelden :

Alderney Airport

Alderney,

breedte: 49-43N, lengte: 002-12W, hoogte: 71 m

Actueel weer

Dit bericht is 23 minuten geleden gemaakt, om 18:20 UTC
Wind 18 kt uit het zuidzuidwesten
Temperatuur 13°C
Vochtigheid 72%
Druk 1013 hPa
Zicht 10 km of meer
Weinig wolken op 1500 ft, Cumulonimbus.

METAR: EGJA 121820Z 21018KT 9999 FEW015CB 13/08 Q1013

Tijdstip: 18:43 (18:43 UTC)

Verwachting

Dit bericht is 4 uur en het 46 minuten geleden gemaakt, om 13:57 UTC
Verwachting geldig van 12 om 15 UTC tot 12 om 19 UTC
Wind 19 kt uit het zuidwesten
Zicht 10 km of meer
Weinig wolken op 2000 ft
Tijdelijke
van 12 om 15 UTC tot 12 om 19 UTC
Zicht: 6000 m
Gebroken wolken op 1500 ft, Cumulonimbus.
regenbuien

TAF: EGJA 121357Z 1215/1219 22019KT 9999 FEW020 TEMPO 1215/1219 6000 SHRA BKN015CB

Waarnemingen en weersverwachtingen van meer dan 4000 vliegvelden (METAR en TAF).

De beschikbare stations zijn de gele en rode punten op de kaart.

Ga met uw muis naar het station om de naam te zien.

Klik dan om waarnemingen en weersverwachtingen te zien.

kaart wijzigen: klik op de groene knoppen met een zwart kruis om in te zoomen, op de groene knop met een streepje om uit te zoomen of op de groene pijlen voor aangrenzende kaarten.


METAR-TAF: